sensor_id;sensor_type;location;lat;lon;timestamp;temperature;humidity
12887;DHT22;6511;49.746;6.094;2023-04-25T00:01:02;7.20;99.90
12887;DHT22;6511;49.746;6.094;2023-04-25T00:03:28;7.10;99.90
12887;DHT22;6511;49.746;6.094;2023-04-25T00:05:54;7.10;99.90
12887;DHT22;6511;49.746;6.094;2023-04-25T00:08:22;7.20;99.90
12887;DHT22;6511;49.746;6.094;2023-04-25T00:10:47;7.30;99.90
12887;DHT22;6511;49.746;6.094;2023-04-25T00:13:14;7.20;99.90
12887;DHT22;6511;49.746;6.094;2023-04-25T00:15:40;7.10;99.90
12887;DHT22;6511;49.746;6.094;2023-04-25T00:18:07;7.20;99.90
12887;DHT22;6511;49.746;6.094;2023-04-25T00:20:32;7.10;99.90
12887;DHT22;6511;49.746;6.094;2023-04-25T00:22:58;6.90;99.90
12887;DHT22;6511;49.746;6.094;2023-04-25T00:25:23;6.90;99.90
12887;DHT22;6511;49.746;6.094;2023-04-25T00:27:49;6.90;99.90
12887;DHT22;6511;49.746;6.094;2023-04-25T00:30:14;6.80;99.90
12887;DHT22;6511;49.746;6.094;2023-04-25T00:32:39;6.60;99.90
12887;DHT22;6511;49.746;6.094;2023-04-25T00:35:05;6.50;99.90
12887;DHT22;6511;49.746;6.094;2023-04-25T00:37:31;6.60;99.90
12887;DHT22;6511;49.746;6.094;2023-04-25T00:39:57;6.70;99.90
12887;DHT22;6511;49.746;6.094;2023-04-25T00:42:23;6.70;99.90
12887;DHT22;6511;49.746;6.094;2023-04-25T00:44:49;6.60;99.90
12887;DHT22;6511;49.746;6.094;2023-04-25T00:47:15;6.60;99.90
12887;DHT22;6511;49.746;6.094;2023-04-25T00:49:40;6.60;99.90
12887;DHT22;6511;49.746;6.094;2023-04-25T00:52:06;6.60;99.90
12887;DHT22;6511;49.746;6.094;2023-04-25T00:54:31;6.60;99.90
12887;DHT22;6511;49.746;6.094;2023-04-25T00:56:57;6.60;99.90
12887;DHT22;6511;49.746;6.094;2023-04-25T00:59:22;6.60;99.90
12887;DHT22;6511;49.746;6.094;2023-04-25T01:01:48;6.40;99.90
12887;DHT22;6511;49.746;6.094;2023-04-25T01:04:14;6.30;99.90
12887;DHT22;6511;49.746;6.094;2023-04-25T01:06:40;6.40;99.90
12887;DHT22;6511;49.746;6.094;2023-04-25T01:09:05;6.30;99.90
12887;DHT22;6511;49.746;6.094;2023-04-25T01:11:31;6.40;99.90
12887;DHT22;6511;49.746;6.094;2023-04-25T01:13:56;6.40;99.90
12887;DHT22;6511;49.746;6.094;2023-04-25T01:16:23;6.30;99.90
12887;DHT22;6511;49.746;6.094;2023-04-25T01:18:49;6.30;99.90
12887;DHT22;6511;49.746;6.094;2023-04-25T01:21:16;6.30;99.90
12887;DHT22;6511;49.746;6.094;2023-04-25T01:23:42;6.40;99.90
12887;DHT22;6511;49.746;6.094;2023-04-25T01:26:08;6.20;99.90
12887;DHT22;6511;49.746;6.094;2023-04-25T01:28:34;6.40;99.90
12887;DHT22;6511;49.746;6.094;2023-04-25T01:31:00;6.40;99.90
12887;DHT22;6511;49.746;6.094;2023-04-25T01:33:26;6.40;99.90
12887;DHT22;6511;49.746;6.094;2023-04-25T01:35:52;6.30;99.90
12887;DHT22;6511;49.746;6.094;2023-04-25T01:38:17;6.30;99.90
12887;DHT22;6511;49.746;6.094;2023-04-25T01:40:43;6.40;99.90
12887;DHT22;6511;49.746;6.094;2023-04-25T01:43:09;6.30;99.90
12887;DHT22;6511;49.746;6.094;2023-04-25T01:45:37;6.30;99.90
12887;DHT22;6511;49.746;6.094;2023-04-25T01:48:07;6.10;99.90
12887;DHT22;6511;49.746;6.094;2023-04-25T01:50:32;6.10;99.90
12887;DHT22;6511;49.746;6.094;2023-04-25T01:52:58;6.10;99.90
12887;DHT22;6511;49.746;6.094;2023-04-25T01:55:23;6.20;99.90
12887;DHT22;6511;49.746;6.094;2023-04-25T01:57:49;6.20;99.90
12887;DHT22;6511;49.746;6.094;2023-04-25T02:00:14;6.20;99.90
12887;DHT22;6511;49.746;6.094;2023-04-25T02:02:40;6.30;99.90
12887;DHT22;6511;49.746;6.094;2023-04-25T02:05:06;6.30;99.90
12887;DHT22;6511;49.746;6.094;2023-04-25T02:07:32;6.20;99.90
12887;DHT22;6511;49.746;6.094;2023-04-25T02:09:57;6.20;99.90
12887;DHT22;6511;49.746;6.094;2023-04-25T02:12:23;6.20;99.90
12887;DHT22;6511;49.746;6.094;2023-04-25T02:14:48;6.10;99.90
12887;DHT22;6511;49.746;6.094;2023-04-25T02:17:14;6.20;99.90
12887;DHT22;6511;49.746;6.094;2023-04-25T02:19:39;6.10;99.90
12887;DHT22;6511;49.746;6.094;2023-04-25T02:22:05;6.10;99.90
12887;DHT22;6511;49.746;6.094;2023-04-25T02:24:30;6.10;99.90
12887;DHT22;6511;49.746;6.094;2023-04-25T02:26:57;6.20;99.90
12887;DHT22;6511;49.746;6.094;2023-04-25T02:29:22;6.40;99.90
12887;DHT22;6511;49.746;6.094;2023-04-25T02:31:48;6.30;99.90
12887;DHT22;6511;49.746;6.094;2023-04-25T02:34:13;6.40;99.90
12887;DHT22;6511;49.746;6.094;2023-04-25T02:36:39;6.40;99.90
12887;DHT22;6511;49.746;6.094;2023-04-25T02:39:04;6.40;99.90
12887;DHT22;6511;49.746;6.094;2023-04-25T02:41:30;6.50;99.90
12887;DHT22;6511;49.746;6.094;2023-04-25T02:43:55;6.50;99.90
12887;DHT22;6511;49.746;6.094;2023-04-25T02:46:21;6.40;99.90
12887;DHT22;6511;49.746;6.094;2023-04-25T02:48:46;6.40;99.90
12887;DHT22;6511;49.746;6.094;2023-04-25T02:51:12;6.40;99.90
12887;DHT22;6511;49.746;6.094;2023-04-25T02:53:37;6.40;99.90
12887;DHT22;6511;49.746;6.094;2023-04-25T02:56:03;6.50;99.90
12887;DHT22;6511;49.746;6.094;2023-04-25T02:58:29;6.50;99.90
12887;DHT22;6511;49.746;6.094;2023-04-25T03:00:54;6.40;99.90
12887;DHT22;6511;49.746;6.094;2023-04-25T03:03:20;6.40;99.90
12887;DHT22;6511;49.746;6.094;2023-04-25T03:05:49;6.40;99.90
12887;DHT22;6511;49.746;6.094;2023-04-25T03:08:15;6.30;99.90
12887;DHT22;6511;49.746;6.094;2023-04-25T03:10:41;6.30;99.90
12887;DHT22;6511;49.746;6.094;2023-04-25T03:13:07;6.30;99.90
12887;DHT22;6511;49.746;6.094;2023-04-25T03:15:32;6.20;99.90
12887;DHT22;6511;49.746;6.094;2023-04-25T03:17:58;6.20;99.90
12887;DHT22;6511;49.746;6.094;2023-04-25T03:20:23;6.20;99.90
12887;DHT22;6511;49.746;6.094;2023-04-25T03:22:49;6.10;99.90
12887;DHT22;6511;49.746;6.094;2023-04-25T03:25:14;6.20;99.90
12887;DHT22;6511;49.746;6.094;2023-04-25T03:27:40;6.20;99.90
12887;DHT22;6511;49.746;6.094;2023-04-25T03:30:05;6.30;99.90
12887;DHT22;6511;49.746;6.094;2023-04-25T03:32:31;6.30;99.90
12887;DHT22;6511;49.746;6.094;2023-04-25T03:34:57;6.30;99.90
12887;DHT22;6511;49.746;6.094;2023-04-25T03:37:22;6.30;99.90
12887;DHT22;6511;49.746;6.094;2023-04-25T03:39:48;6.40;99.90
12887;DHT22;6511;49.746;6.094;2023-04-25T03:42:13;6.30;99.90
12887;DHT22;6511;49.746;6.094;2023-04-25T03:44:39;6.30;99.90
12887;DHT22;6511;49.746;6.094;2023-04-25T03:47:05;6.20;99.90
12887;DHT22;6511;49.746;6.094;2023-04-25T03:49:32;6.10;99.90
12887;DHT22;6511;49.746;6.094;2023-04-25T03:51:57;6.20;99.90
12887;DHT22;6511;49.746;6.094;2023-04-25T03:54:23;6.30;99.90
12887;DHT22;6511;49.746;6.094;2023-04-25T03:56:48;6.30;99.90
12887;DHT22;6511;49.746;6.094;2023-04-25T03:59:14;6.30;99.90
12887;DHT22;6511;49.746;6.094;2023-04-25T04:01:39;6.30;99.90
12887;DHT22;6511;49.746;6.094;2023-04-25T04:04:05;6.30;99.90
12887;DHT22;6511;49.746;6.094;2023-04-25T04:06:30;6.40;99.90
12887;DHT22;6511;49.746;6.094;2023-04-25T04:08:56;6.40;99.90
12887;DHT22;6511;49.746;6.094;2023-04-25T04:11:22;6.30;99.90
12887;DHT22;6511;49.746;6.094;2023-04-25T04:13:47;6.30;99.90
12887;DHT22;6511;49.746;6.094;2023-04-25T04:16:12;6.40;99.90
12887;DHT22;6511;49.746;6.094;2023-04-25T04:18:38;6.40;99.90
12887;DHT22;6511;49.746;6.094;2023-04-25T04:21:04;6.40;99.90
12887;DHT22;6511;49.746;6.094;2023-04-25T04:23:29;6.30;99.90
12887;DHT22;6511;49.746;6.094;2023-04-25T04:25:55;6.10;99.90
12887;DHT22;6511;49.746;6.094;2023-04-25T04:28:21;6.30;99.90
12887;DHT22;6511;49.746;6.094;2023-04-25T04:30:47;6.30;99.90
12887;DHT22;6511;49.746;6.094;2023-04-25T04:33:12;6.30;99.90
12887;DHT22;6511;49.746;6.094;2023-04-25T04:35:38;6.40;99.90
12887;DHT22;6511;49.746;6.094;2023-04-25T04:38:04;6.30;99.90
12887;DHT22;6511;49.746;6.094;2023-04-25T04:40:30;6.50;99.90
12887;DHT22;6511;49.746;6.094;2023-04-25T04:42:56;6.40;99.90
12887;DHT22;6511;49.746;6.094;2023-04-25T04:45:23;6.40;99.90
12887;DHT22;6511;49.746;6.094;2023-04-25T04:47:49;6.40;99.90
12887;DHT22;6511;49.746;6.094;2023-04-25T04:50:14;6.40;99.90
12887;DHT22;6511;49.746;6.094;2023-04-25T04:52:41;6.20;99.90
12887;DHT22;6511;49.746;6.094;2023-04-25T04:55:07;6.20;99.90
12887;DHT22;6511;49.746;6.094;2023-04-25T04:57:33;6.40;99.90
12887;DHT22;6511;49.746;6.094;2023-04-25T04:59:59;6.40;99.90
12887;DHT22;6511;49.746;6.094;2023-04-25T05:02:25;6.50;99.90
12887;DHT22;6511;49.746;6.094;2023-04-25T05:04:51;6.50;99.90
12887;DHT22;6511;49.746;6.094;2023-04-25T05:07:17;6.40;99.90
12887;DHT22;6511;49.746;6.094;2023-04-25T05:09:43;6.40;99.90
12887;DHT22;6511;49.746;6.094;2023-04-25T05:12:08;6.40;99.90
12887;DHT22;6511;49.746;6.094;2023-04-25T05:14:34;6.40;99.90
12887;DHT22;6511;49.746;6.094;2023-04-25T05:16:59;6.50;99.90
12887;DHT22;6511;49.746;6.094;2023-04-25T05:19:25;6.40;99.90
12887;DHT22;6511;49.746;6.094;2023-04-25T05:21:51;6.40;99.90
12887;DHT22;6511;49.746;6.094;2023-04-25T05:24:17;6.30;99.90
12887;DHT22;6511;49.746;6.094;2023-04-25T05:26:43;6.30;99.90
12887;DHT22;6511;49.746;6.094;2023-04-25T05:29:08;6.50;99.90
12887;DHT22;6511;49.746;6.094;2023-04-25T05:31:34;6.50;99.90
12887;DHT22;6511;49.746;6.094;2023-04-25T05:33:59;6.50;99.90
12887;DHT22;6511;49.746;6.094;2023-04-25T05:36:25;6.50;99.90
12887;DHT22;6511;49.746;6.094;2023-04-25T05:38:51;6.70;99.90
12887;DHT22;6511;49.746;6.094;2023-04-25T05:41:16;6.70;99.90
12887;DHT22;6511;49.746;6.094;2023-04-25T05:43:42;6.70;99.90
12887;DHT22;6511;49.746;6.094;2023-04-25T05:46:12;6.70;99.90
12887;DHT22;6511;49.746;6.094;2023-04-25T05:48:38;6.70;99.90
12887;DHT22;6511;49.746;6.094;2023-04-25T05:51:03;6.60;99.90
12887;DHT22;6511;49.746;6.094;2023-04-25T05:53:29;6.70;99.90
12887;DHT22;6511;49.746;6.094;2023-04-25T05:55:54;6.60;99.90
12887;DHT22;6511;49.746;6.094;2023-04-25T05:58:20;6.70;99.90
12887;DHT22;6511;49.746;6.094;2023-04-25T06:00:45;6.80;99.90
12887;DHT22;6511;49.746;6.094;2023-04-25T06:03:11;6.90;99.90
12887;DHT22;6511;49.746;6.094;2023-04-25T06:05:38;7.00;99.90
12887;DHT22;6511;49.746;6.094;2023-04-25T06:08:04;7.00;99.90
12887;DHT22;6511;49.746;6.094;2023-04-25T06:10:31;7.00;99.90
12887;DHT22;6511;49.746;6.094;2023-04-25T06:12:57;7.20;99.90
12887;DHT22;6511;49.746;6.094;2023-04-25T06:15:22;7.10;99.90
12887;DHT22;6511;49.746;6.094;2023-04-25T06:17:48;6.60;99.90
12887;DHT22;6511;49.746;6.094;2023-04-25T06:20:14;6.50;99.90
12887;DHT22;6511;49.746;6.094;2023-04-25T06:22:39;6.20;99.90
12887;DHT22;6511;49.746;6.094;2023-04-25T06:25:05;6.20;99.90
12887;DHT22;6511;49.746;6.094;2023-04-25T06:27:32;6.10;99.90
12887;DHT22;6511;49.746;6.094;2023-04-25T06:29:58;6.10;99.90
12887;DHT22;6511;49.746;6.094;2023-04-25T06:32:24;6.10;99.90
12887;DHT22;6511;49.746;6.094;2023-04-25T06:34:49;6.20;99.90
12887;DHT22;6511;49.746;6.094;2023-04-25T06:37:15;6.20;99.90
12887;DHT22;6511;49.746;6.094;2023-04-25T06:39:43;6.10;99.90
12887;DHT22;6511;49.746;6.094;2023-04-25T06:42:09;5.90;99.90
12887;DHT22;6511;49.746;6.094;2023-04-25T06:44:35;5.80;99.90
12887;DHT22;6511;49.746;6.094;2023-04-25T06:47:01;5.60;99.90
12887;DHT22;6511;49.746;6.094;2023-04-25T06:49:26;5.60;99.90
12887;DHT22;6511;49.746;6.094;2023-04-25T06:51:52;5.70;99.90
12887;DHT22;6511;49.746;6.094;2023-04-25T06:54:17;5.70;99.90
12887;DHT22;6511;49.746;6.094;2023-04-25T06:56:43;5.60;99.90
12887;DHT22;6511;49.746;6.094;2023-04-25T06:59:08;5.50;99.90
12887;DHT22;6511;49.746;6.094;2023-04-25T07:01:34;5.70;99.90
12887;DHT22;6511;49.746;6.094;2023-04-25T07:04:00;5.70;99.90
12887;DHT22;6511;49.746;6.094;2023-04-25T07:06:26;5.90;99.90
12887;DHT22;6511;49.746;6.094;2023-04-25T07:08:53;5.80;99.90
12887;DHT22;6511;49.746;6.094;2023-04-25T07:11:18;5.90;99.90
12887;DHT22;6511;49.746;6.094;2023-04-25T07:13:44;6.00;99.90
12887;DHT22;6511;49.746;6.094;2023-04-25T07:16:09;5.80;99.90
12887;DHT22;6511;49.746;6.094;2023-04-25T07:18:35;5.90;99.90
12887;DHT22;6511;49.746;6.094;2023-04-25T07:21:00;6.00;99.90
12887;DHT22;6511;49.746;6.094;2023-04-25T07:23:26;6.10;99.90
12887;DHT22;6511;49.746;6.094;2023-04-25T07:25:51;6.10;99.90
12887;DHT22;6511;49.746;6.094;2023-04-25T07:28:17;6.10;99.90
12887;DHT22;6511;49.746;6.094;2023-04-25T07:30:43;6.20;99.90
12887;DHT22;6511;49.746;6.094;2023-04-25T07:33:08;6.20;99.90
12887;DHT22;6511;49.746;6.094;2023-04-25T07:35:34;6.20;99.90
12887;DHT22;6511;49.746;6.094;2023-04-25T07:37:59;6.10;99.90
12887;DHT22;6511;49.746;6.094;2023-04-25T07:40:25;6.20;99.90
12887;DHT22;6511;49.746;6.094;2023-04-25T07:42:50;6.20;99.90
12887;DHT22;6511;49.746;6.094;2023-04-25T07:45:16;6.20;99.90
12887;DHT22;6511;49.746;6.094;2023-04-25T07:47:41;6.20;99.90
12887;DHT22;6511;49.746;6.094;2023-04-25T07:50:07;6.30;99.90
12887;DHT22;6511;49.746;6.094;2023-04-25T07:52:33;6.30;99.90
12887;DHT22;6511;49.746;6.094;2023-04-25T07:54:58;6.20;99.90
12887;DHT22;6511;49.746;6.094;2023-04-25T07:57:24;6.20;99.90
12887;DHT22;6511;49.746;6.094;2023-04-25T07:59:49;6.40;99.90
12887;DHT22;6511;49.746;6.094;2023-04-25T08:02:15;6.40;99.90
12887;DHT22;6511;49.746;6.094;2023-04-25T08:04:40;6.40;99.90
12887;DHT22;6511;49.746;6.094;2023-04-25T08:07:06;6.30;99.90
12887;DHT22;6511;49.746;6.094;2023-04-25T08:09:32;6.50;99.90
12887;DHT22;6511;49.746;6.094;2023-04-25T08:12:01;6.50;99.90
12887;DHT22;6511;49.746;6.094;2023-04-25T08:14:27;6.50;99.90
12887;DHT22;6511;49.746;6.094;2023-04-25T08:17:01;6.70;99.90
12887;DHT22;6511;49.746;6.094;2023-04-25T08:19:26;6.80;99.90
12887;DHT22;6511;49.746;6.094;2023-04-25T08:21:52;6.70;99.90
12887;DHT22;6511;49.746;6.094;2023-04-25T08:24:17;6.70;99.90
12887;DHT22;6511;49.746;6.094;2023-04-25T08:26:43;6.60;99.90
12887;DHT22;6511;49.746;6.094;2023-04-25T08:29:08;6.40;99.90
12887;DHT22;6511;49.746;6.094;2023-04-25T08:31:34;6.30;99.90
12887;DHT22;6511;49.746;6.094;2023-04-25T08:33:59;6.20;99.90
12887;DHT22;6511;49.746;6.094;2023-04-25T08:36:25;6.30;99.90
12887;DHT22;6511;49.746;6.094;2023-04-25T08:38:50;6.30;99.90
12887;DHT22;6511;49.746;6.094;2023-04-25T08:41:16;6.30;99.90
12887;DHT22;6511;49.746;6.094;2023-04-25T08:43:42;6.40;99.90
12887;DHT22;6511;49.746;6.094;2023-04-25T08:46:08;6.40;99.90
12887;DHT22;6511;49.746;6.094;2023-04-25T08:48:33;6.50;99.90
12887;DHT22;6511;49.746;6.094;2023-04-25T08:51:01;6.40;99.90
12887;DHT22;6511;49.746;6.094;2023-04-25T08:53:29;6.40;99.90
12887;DHT22;6511;49.746;6.094;2023-04-25T08:55:55;6.30;99.90
12887;DHT22;6511;49.746;6.094;2023-04-25T08:58:21;6.20;99.90
12887;DHT22;6511;49.746;6.094;2023-04-25T09:00:47;6.10;99.90
12887;DHT22;6511;49.746;6.094;2023-04-25T09:03:13;6.10;99.90
12887;DHT22;6511;49.746;6.094;2023-04-25T09:05:39;6.10;99.90
12887;DHT22;6511;49.746;6.094;2023-04-25T09:08:05;6.10;99.90
12887;DHT22;6511;49.746;6.094;2023-04-25T09:10:31;6.20;99.90
12887;DHT22;6511;49.746;6.094;2023-04-25T09:13:06;6.10;99.90
12887;DHT22;6511;49.746;6.094;2023-04-25T09:15:46;6.10;99.90
12887;DHT22;6511;49.746;6.094;2023-04-25T09:18:12;6.20;99.90
12887;DHT22;6511;49.746;6.094;2023-04-25T09:20:44;6.10;99.90
12887;DHT22;6511;49.746;6.094;2023-04-25T09:23:09;6.20;99.90
12887;DHT22;6511;49.746;6.094;2023-04-25T09:25:35;6.30;99.90
12887;DHT22;6511;49.746;6.094;2023-04-25T09:28:04;6.40;99.90
12887;DHT22;6511;49.746;6.094;2023-04-25T09:30:31;6.40;99.90
12887;DHT22;6511;49.746;6.094;2023-04-25T09:32:57;6.50;99.90
12887;DHT22;6511;49.746;6.094;2023-04-25T09:35:26;6.30;99.90
12887;DHT22;6511;49.746;6.094;2023-04-25T09:37:52;6.20;99.90
12887;DHT22;6511;49.746;6.094;2023-04-25T09:40:17;6.20;99.90
12887;DHT22;6511;49.746;6.094;2023-04-25T09:42:43;6.40;99.90
12887;DHT22;6511;49.746;6.094;2023-04-25T09:45:08;6.40;99.90
12887;DHT22;6511;49.746;6.094;2023-04-25T09:47:37;6.60;99.90
12887;DHT22;6511;49.746;6.094;2023-04-25T09:50:04;6.50;99.90
12887;DHT22;6511;49.746;6.094;2023-04-25T09:52:38;6.60;99.90
12887;DHT22;6511;49.746;6.094;2023-04-25T09:55:04;6.70;99.90
12887;DHT22;6511;49.746;6.094;2023-04-25T09:57:31;6.80;99.90
12887;DHT22;6511;49.746;6.094;2023-04-25T09:59:56;6.90;99.90
12887;DHT22;6511;49.746;6.094;2023-04-25T10:02:26;7.10;99.90
12887;DHT22;6511;49.746;6.094;2023-04-25T10:04:52;7.10;99.90
12887;DHT22;6511;49.746;6.094;2023-04-25T10:07:23;7.10;99.90
12887;DHT22;6511;49.746;6.094;2023-04-25T10:09:54;7.10;99.90
12887;DHT22;6511;49.746;6.094;2023-04-25T10:12:20;7.10;99.90
12887;DHT22;6511;49.746;6.094;2023-04-25T10:14:46;7.30;99.90
12887;DHT22;6511;49.746;6.094;2023-04-25T10:17:12;7.50;99.90
12887;DHT22;6511;49.746;6.094;2023-04-25T10:19:39;7.50;99.90
12887;DHT22;6511;49.746;6.094;2023-04-25T10:24:30;7.90;99.90
12887;DHT22;6511;49.746;6.094;2023-04-25T10:26:55;8.10;99.90
12887;DHT22;6511;49.746;6.094;2023-04-25T10:29:25;8.10;99.90
12887;DHT22;6511;49.746;6.094;2023-04-25T10:31:50;8.00;99.90
12887;DHT22;6511;49.746;6.094;2023-04-25T10:34:16;8.00;99.90
12887;DHT22;6511;49.746;6.094;2023-04-25T10:36:42;8.00;99.90
12887;DHT22;6511;49.746;6.094;2023-04-25T10:39:08;7.70;99.90
12887;DHT22;6511;49.746;6.094;2023-04-25T10:41:46;7.80;99.90
12887;DHT22;6511;49.746;6.094;2023-04-25T10:44:13;7.80;99.90
12887;DHT22;6511;49.746;6.094;2023-04-25T10:46:39;7.90;99.90
12887;DHT22;6511;49.746;6.094;2023-04-25T10:49:04;7.60;99.90
12887;DHT22;6511;49.746;6.094;2023-04-25T10:54:06;8.10;99.90
12887;DHT22;6511;49.746;6.094;2023-04-25T10:56:32;7.70;99.90
12887;DHT22;6511;49.746;6.094;2023-04-25T10:59:31;7.60;99.90
12887;DHT22;6511;49.746;6.094;2023-04-25T11:01:53;7.30;99.90
12887;DHT22;6511;49.746;6.094;2023-04-25T11:04:31;7.50;99.90
12887;DHT22;6511;49.746;6.094;2023-04-25T11:09:41;7.90;99.90
12887;DHT22;6511;49.746;6.094;2023-04-25T11:12:07;7.70;99.90
12887;DHT22;6511;49.746;6.094;2023-04-25T11:14:32;7.70;99.90
12887;DHT22;6511;49.746;6.094;2023-04-25T11:16:58;7.50;99.90
12887;DHT22;6511;49.746;6.094;2023-04-25T11:19:24;7.70;99.90
12887;DHT22;6511;49.746;6.094;2023-04-25T11:21:50;7.70;99.90
12887;DHT22;6511;49.746;6.094;2023-04-25T11:24:16;8.20;99.90
12887;DHT22;6511;49.746;6.094;2023-04-25T11:26:41;8.00;99.90
12887;DHT22;6511;49.746;6.094;2023-04-25T11:29:07;7.80;99.90
12887;DHT22;6511;49.746;6.094;2023-04-25T11:31:33;8.30;99.90
12887;DHT22;6511;49.746;6.094;2023-04-25T11:33:58;8.20;99.90
12887;DHT22;6511;49.746;6.094;2023-04-25T11:36:24;8.40;99.90
12887;DHT22;6511;49.746;6.094;2023-04-25T11:38:51;8.50;99.90
12887;DHT22;6511;49.746;6.094;2023-04-25T11:41:17;8.60;99.90
12887;DHT22;6511;49.746;6.094;2023-04-25T11:43:43;8.30;99.90
12887;DHT22;6511;49.746;6.094;2023-04-25T11:46:09;8.30;99.90
12887;DHT22;6511;49.746;6.094;2023-04-25T11:48:38;8.40;99.90
12887;DHT22;6511;49.746;6.094;2023-04-25T11:51:04;8.80;99.90
12887;DHT22;6511;49.746;6.094;2023-04-25T11:53:29;9.10;99.90
12887;DHT22;6511;49.746;6.094;2023-04-25T11:55:55;8.90;99.90
12887;DHT22;6511;49.746;6.094;2023-04-25T11:58:21;8.70;99.90
12887;DHT22;6511;49.746;6.094;2023-04-25T12:00:46;8.60;99.90
12887;DHT22;6511;49.746;6.094;2023-04-25T12:03:12;8.40;99.90
12887;DHT22;6511;49.746;6.094;2023-04-25T12:05:37;8.30;99.90
12887;DHT22;6511;49.746;6.094;2023-04-25T12:08:15;8.10;99.90
12887;DHT22;6511;49.746;6.094;2023-04-25T12:10:44;8.00;99.90
12887;DHT22;6511;49.746;6.094;2023-04-25T12:15:45;8.10;99.90
12887;DHT22;6511;49.746;6.094;2023-04-25T12:18:10;8.20;99.90
12887;DHT22;6511;49.746;6.094;2023-04-25T12:20:36;8.40;99.90
12887;DHT22;6511;49.746;6.094;2023-04-25T12:23:01;8.30;99.90
12887;DHT22;6511;49.746;6.094;2023-04-25T12:25:37;8.50;99.90
12887;DHT22;6511;49.746;6.094;2023-04-25T12:31:18;9.10;99.90
12887;DHT22;6511;49.746;6.094;2023-04-25T12:33:37;9.20;99.90
12887;DHT22;6511;49.746;6.094;2023-04-25T12:36:03;9.30;99.90
12887;DHT22;6511;49.746;6.094;2023-04-25T12:38:40;9.50;99.90
12887;DHT22;6511;49.746;6.094;2023-04-25T12:41:05;9.70;99.90
12887;DHT22;6511;49.746;6.094;2023-04-25T12:43:31;9.40;99.90
12887;DHT22;6511;49.746;6.094;2023-04-25T12:45:57;9.70;99.90
12887;DHT22;6511;49.746;6.094;2023-04-25T12:48:23;9.80;99.90
12887;DHT22;6511;49.746;6.094;2023-04-25T12:50:49;10.20;99.90
12887;DHT22;6511;49.746;6.094;2023-04-25T12:53:18;10.30;99.90
12887;DHT22;6511;49.746;6.094;2023-04-25T12:55:44;10.10;99.90
12887;DHT22;6511;49.746;6.094;2023-04-25T12:58:15;10.20;99.90
12887;DHT22;6511;49.746;6.094;2023-04-25T13:00:41;10.30;99.90
12887;DHT22;6511;49.746;6.094;2023-04-25T13:03:07;10.00;99.90
12887;DHT22;6511;49.746;6.094;2023-04-25T13:05:33;10.00;99.90
12887;DHT22;6511;49.746;6.094;2023-04-25T13:07:58;9.70;99.90
12887;DHT22;6511;49.746;6.094;2023-04-25T13:10:24;9.60;99.90
12887;DHT22;6511;49.746;6.094;2023-04-25T13:12:50;9.80;99.90
12887;DHT22;6511;49.746;6.094;2023-04-25T13:15:15;9.90;99.90
12887;DHT22;6511;49.746;6.094;2023-04-25T13:17:41;10.00;99.90
12887;DHT22;6511;49.746;6.094;2023-04-25T13:20:07;10.10;99.90
12887;DHT22;6511;49.746;6.094;2023-04-25T13:22:34;10.10;99.90
12887;DHT22;6511;49.746;6.094;2023-04-25T13:25:02;9.70;99.90
12887;DHT22;6511;49.746;6.094;2023-04-25T13:27:27;9.70;99.90
12887;DHT22;6511;49.746;6.094;2023-04-25T13:29:53;10.00;99.90
12887;DHT22;6511;49.746;6.094;2023-04-25T13:32:18;10.20;99.90
12887;DHT22;6511;49.746;6.094;2023-04-25T13:34:44;10.20;99.90
12887;DHT22;6511;49.746;6.094;2023-04-25T13:37:09;10.20;99.90
12887;DHT22;6511;49.746;6.094;2023-04-25T13:39:35;10.10;99.90
12887;DHT22;6511;49.746;6.094;2023-04-25T13:42:00;9.90;99.90
12887;DHT22;6511;49.746;6.094;2023-04-25T13:44:27;9.80;99.90
12887;DHT22;6511;49.746;6.094;2023-04-25T13:46:52;9.70;99.90
12887;DHT22;6511;49.746;6.094;2023-04-25T13:49:18;9.70;99.90
12887;DHT22;6511;49.746;6.094;2023-04-25T13:51:43;10.20;99.90
12887;DHT22;6511;49.746;6.094;2023-04-25T13:54:09;10.30;99.90
12887;DHT22;6511;49.746;6.094;2023-04-25T13:56:34;10.60;99.90
12887;DHT22;6511;49.746;6.094;2023-04-25T13:59:00;10.50;99.90
12887;DHT22;6511;49.746;6.094;2023-04-25T14:01:25;10.00;99.90
12887;DHT22;6511;49.746;6.094;2023-04-25T14:03:52;9.90;99.90
12887;DHT22;6511;49.746;6.094;2023-04-25T14:06:18;9.60;99.90
12887;DHT22;6511;49.746;6.094;2023-04-25T14:08:48;9.40;99.90
12887;DHT22;6511;49.746;6.094;2023-04-25T14:11:14;9.30;99.90
12887;DHT22;6511;49.746;6.094;2023-04-25T14:13:39;9.40;99.90
12887;DHT22;6511;49.746;6.094;2023-04-25T14:16:05;9.50;99.90
12887;DHT22;6511;49.746;6.094;2023-04-25T14:18:30;9.60;99.90
12887;DHT22;6511;49.746;6.094;2023-04-25T14:20:56;9.80;99.90
12887;DHT22;6511;49.746;6.094;2023-04-25T14:23:21;9.70;99.90
12887;DHT22;6511;49.746;6.094;2023-04-25T14:25:47;9.80;99.90
12887;DHT22;6511;49.746;6.094;2023-04-25T14:28:12;10.20;99.90
12887;DHT22;6511;49.746;6.094;2023-04-25T14:30:38;10.10;99.90
12887;DHT22;6511;49.746;6.094;2023-04-25T14:33:03;10.00;99.90
12887;DHT22;6511;49.746;6.094;2023-04-25T14:35:29;9.90;99.90
12887;DHT22;6511;49.746;6.094;2023-04-25T14:37:54;9.70;99.90
12887;DHT22;6511;49.746;6.094;2023-04-25T14:40:20;9.70;99.90
12887;DHT22;6511;49.746;6.094;2023-04-25T14:42:48;9.80;99.90
12887;DHT22;6511;49.746;6.094;2023-04-25T14:45:14;9.80;99.90
12887;DHT22;6511;49.746;6.094;2023-04-25T14:47:39;9.80;99.90
12887;DHT22;6511;49.746;6.094;2023-04-25T14:50:06;9.90;99.90
12887;DHT22;6511;49.746;6.094;2023-04-25T14:52:31;10.00;99.90
12887;DHT22;6511;49.746;6.094;2023-04-25T14:54:57;10.10;99.90
12887;DHT22;6511;49.746;6.094;2023-04-25T14:57:22;10.10;99.90
12887;DHT22;6511;49.746;6.094;2023-04-25T14:59:48;9.80;99.90
12887;DHT22;6511;49.746;6.094;2023-04-25T15:02:13;9.70;99.90
12887;DHT22;6511;49.746;6.094;2023-04-25T15:04:39;9.60;99.90
12887;DHT22;6511;49.746;6.094;2023-04-25T15:07:04;9.60;99.90
12887;DHT22;6511;49.746;6.094;2023-04-25T15:09:30;9.60;99.90
12887;DHT22;6511;49.746;6.094;2023-04-25T15:11:56;9.40;99.90
12887;DHT22;6511;49.746;6.094;2023-04-25T15:14:22;9.50;99.90
12887;DHT22;6511;49.746;6.094;2023-04-25T15:16:47;9.40;99.90
12887;DHT22;6511;49.746;6.094;2023-04-25T15:19:13;9.50;99.90
12887;DHT22;6511;49.746;6.094;2023-04-25T15:21:39;9.50;99.90
12887;DHT22;6511;49.746;6.094;2023-04-25T15:24:04;9.40;99.90
12887;DHT22;6511;49.746;6.094;2023-04-25T15:26:30;9.30;99.90
12887;DHT22;6511;49.746;6.094;2023-04-25T15:28:56;9.30;99.90
12887;DHT22;6511;49.746;6.094;2023-04-25T15:31:21;9.20;99.90
12887;DHT22;6511;49.746;6.094;2023-04-25T15:33:47;9.20;99.90
12887;DHT22;6511;49.746;6.094;2023-04-25T15:36:12;9.00;99.90
12887;DHT22;6511;49.746;6.094;2023-04-25T15:38:39;9.00;99.90
12887;DHT22;6511;49.746;6.094;2023-04-25T15:41:05;9.10;99.90
12887;DHT22;6511;49.746;6.094;2023-04-25T15:43:31;9.10;99.90
12887;DHT22;6511;49.746;6.094;2023-04-25T15:45:56;9.20;99.90
12887;DHT22;6511;49.746;6.094;2023-04-25T15:48:22;9.20;99.90
12887;DHT22;6511;49.746;6.094;2023-04-25T15:50:47;9.20;99.90
12887;DHT22;6511;49.746;6.094;2023-04-25T15:53:13;9.10;99.90
12887;DHT22;6511;49.746;6.094;2023-04-25T15:55:44;9.00;99.90
12887;DHT22;6511;49.746;6.094;2023-04-25T15:58:10;9.00;99.90
12887;DHT22;6511;49.746;6.094;2023-04-25T16:00:35;9.00;99.90
12887;DHT22;6511;49.746;6.094;2023-04-25T16:03:02;9.00;99.90
12887;DHT22;6511;49.746;6.094;2023-04-25T16:05:28;8.90;99.90